createdAt,value
2022-09-15T00:01:44.816Z,99797.09
2022-09-15T00:04:54.756Z,99803.94
2022-09-15T00:08:04.793Z,99807.69
2022-09-15T00:11:18.083Z,99811.25
2022-09-15T00:14:28.357Z,99810.31
2022-09-15T00:17:39.863Z,99821.03
2022-09-15T00:20:50.472Z,99823.66
2022-09-15T00:24:02.124Z,99815.84
2022-09-15T00:27:12.684Z,99828.06
2022-09-15T00:30:23.081Z,99825.47
2022-09-15T00:33:35.095Z,99822.81
2022-09-15T00:36:45.296Z,99820.59
2022-09-15T00:39:55.928Z,99811.25
2022-09-15T00:43:10.301Z,99809.19
2022-09-15T00:46:24.426Z,99813.34
2022-09-15T00:49:38.668Z,99809.72
2022-09-15T00:52:52.869Z,99818.59
2022-09-15T00:56:04.541Z,99822.88
2022-09-15T00:59:18.118Z,99819.44
2022-09-15T01:02:30.519Z,99816.09
2022-09-15T01:05:47.545Z,99810.03
2022-09-15T01:09:02.663Z,99800.41
2022-09-15T01:12:13.202Z,99803.84
2022-09-15T01:15:27.592Z,99799.56
2022-09-15T01:18:46.033Z,99806.50
2022-09-15T01:22:01.039Z,99798.75
2022-09-15T01:25:22.150Z,99805.78
2022-09-15T01:28:51.108Z,99808.47
2022-09-15T01:32:26.161Z,99809.34
2022-09-15T01:36:01.393Z,99803.22
2022-09-15T01:39:17.567Z,99803.31
2022-09-15T01:42:29.062Z,99801.56
2022-09-15T01:45:43.198Z,99806.81
2022-09-15T01:48:57.509Z,99805.19
2022-09-15T01:52:07.862Z,99806.16
2022-09-15T01:55:23.402Z,99808.78
2022-09-15T01:58:33.988Z,99801.66
2022-09-15T02:01:51.761Z,99802.41
2022-09-15T02:05:07.313Z,99803.28
2022-09-15T02:08:25.139Z,99801.53
2022-09-15T02:11:37.825Z,99794.63
2022-09-15T02:14:53.235Z,99804.16
2022-09-15T02:18:08.460Z,99796.28
2022-09-15T02:21:25.152Z,99801.56
2022-09-15T02:24:40.455Z,99801.53
2022-09-15T02:27:54.831Z,99809.47
2022-09-15T02:31:09.365Z,99809.34
2022-09-15T02:34:25.376Z,99811.16
2022-09-15T02:37:38.222Z,99825.34
2022-09-15T02:40:49.135Z,99828.88
2022-09-15T02:43:59.118Z,99836.72
2022-09-15T02:47:09.460Z,99832.81
2022-09-15T02:50:20.484Z,99826.53
2022-09-15T02:53:31.938Z,99830.63
2022-09-15T02:56:42.080Z,99834.75
2022-09-15T03:00:09.606Z,99821.53
2022-09-15T03:03:21.956Z,99812.72
2022-09-15T03:06:35.430Z,99813.47
2022-09-15T03:09:47.153Z,99816.16
2022-09-15T03:12:57.564Z,99816.94
2022-09-15T03:16:11.310Z,99815.16
2022-09-15T03:19:21.680Z,99812.53
2022-09-15T03:22:31.941Z,99814.25
2022-09-15T03:25:46.584Z,99823.94
2022-09-15T03:28:58.092Z,99831.88
2022-09-15T03:32:08.599Z,99824.97
2022-09-15T03:35:18.805Z,99837.38
2022-09-15T03:38:28.843Z,99833.00
2022-09-15T03:41:40.214Z,99850.41
2022-09-15T03:44:50.464Z,99842.50
2022-09-15T03:48:01.410Z,99833.72
2022-09-15T03:51:12.392Z,99823.81
2022-09-15T03:54:22.844Z,99827.84
2022-09-15T03:57:34.091Z,99832.03
2022-09-15T04:00:45.724Z,99827.75
2022-09-15T04:03:56.739Z,99822.28
2022-09-15T04:07:06.737Z,99821.38
2022-09-15T04:10:16.862Z,99816.03
2022-09-15T04:13:28.929Z,99819.44
2022-09-15T04:16:39.463Z,99817.84
2022-09-15T04:19:49.571Z,99809.97
2022-09-15T04:22:59.646Z,99812.78
2022-09-15T04:26:15.703Z,99807.41
2022-09-15T04:29:27.343Z,99803.22
2022-09-15T04:32:37.718Z,99812.16
2022-09-15T04:35:48.215Z,99799.94
2022-09-15T04:38:59.170Z,99807.88
2022-09-15T04:42:09.477Z,99803.44
2022-09-15T04:45:21.516Z,99807.03
2022-09-15T04:48:32.423Z,99807.16
2022-09-15T04:51:42.863Z,99800.25
2022-09-15T04:54:53.112Z,99795.94
2022-09-15T04:58:04.259Z,99798.47
2022-09-15T05:01:18.201Z,99805.72
2022-09-15T05:04:28.410Z,99805.94
2022-09-15T05:07:38.528Z,99807.41
2022-09-15T05:10:48.693Z,99810.78
2022-09-15T05:13:58.750Z,99811.69
2022-09-15T05:17:10.666Z,99804.00
2022-09-15T05:20:20.640Z,99805.56
2022-09-15T05:23:30.780Z,99802.19
2022-09-15T05:26:41.655Z,99797.66
2022-09-15T05:30:04.315Z,99790.34
2022-09-15T05:33:24.544Z,99797.63
2022-09-15T05:36:35.515Z,99796.81
2022-09-15T05:39:46.143Z,99799.84
2022-09-15T05:42:56.252Z,99797.22
2022-09-15T05:46:08.081Z,99799.97
2022-09-15T05:49:20.022Z,99801.88
2022-09-15T05:52:30.129Z,99802.75
2022-09-15T05:55:41.122Z,99814.88
2022-09-15T05:58:51.277Z,99810.25
2022-09-15T06:02:01.612Z,99817.09
2022-09-15T06:05:13.635Z,99817.09
2022-09-15T06:08:24.003Z,99813.84
2022-09-15T06:11:34.648Z,99816.53
2022-09-15T06:14:45.924Z,99816.69
2022-09-15T06:17:56.314Z,99812.63
2022-09-15T06:21:10.577Z,99815.53
2022-09-15T06:24:21.978Z,99815.69
2022-09-15T06:27:32.649Z,99818.47
2022-09-15T06:30:43.000Z,99829.72
2022-09-15T06:33:55.826Z,99821.94
2022-09-15T06:37:08.112Z,99831.00
2022-09-15T06:40:18.397Z,99836.31
2022-09-15T06:43:28.347Z,99853.19
2022-09-15T06:46:38.845Z,99858.44
2022-09-15T06:49:49.035Z,99854.91
2022-09-15T06:53:00.563Z,99859.66
2022-09-15T06:56:13.057Z,99862.84
2022-09-15T06:59:24.576Z,99854.88
2022-09-15T07:02:34.679Z,99856.34
2022-09-15T07:05:46.218Z,99856.78
2022-09-15T07:08:58.860Z,99858.78
2022-09-15T07:12:09.806Z,99862.34
2022-09-15T07:15:20.111Z,99855.22
2022-09-15T07:18:30.142Z,99859.47
2022-09-15T07:21:40.165Z,99865.88
2022-09-15T07:24:51.629Z,99871.69
2022-09-15T07:28:02.151Z,99863.09
2022-09-15T07:31:16.272Z,99864.97
2022-09-15T07:34:26.521Z,99874.34
2022-09-15T07:37:37.020Z,99873.38
2022-09-15T07:40:49.157Z,99871.03
2022-09-15T07:44:00.794Z,99873.81
2022-09-15T07:47:10.846Z,99872.22
2022-09-15T07:50:20.885Z,99875.63
2022-09-15T07:53:31.503Z,99886.06
2022-09-15T07:56:43.589Z,99896.13
2022-09-15T07:59:54.432Z,99901.88
2022-09-15T08:03:04.881Z,99905.50
2022-09-15T08:06:16.051Z,99902.97
2022-09-15T08:09:26.485Z,99896.41
2022-09-15T08:12:38.163Z,99895.59
2022-09-15T08:15:48.296Z,99896.41
2022-09-15T08:18:58.556Z,99895.06
2022-09-15T08:22:08.431Z,99906.03
2022-09-15T08:25:18.831Z,99895.28
2022-09-15T08:28:30.648Z,99898.78
2022-09-15T08:31:40.804Z,99896.28
2022-09-15T08:34:51.115Z,99898.28
2022-09-15T08:38:01.443Z,99900.09
2022-09-15T08:41:16.267Z,99904.22
2022-09-15T08:44:37.285Z,99916.84
2022-09-15T08:47:51.680Z,99902.56
2022-09-15T08:51:06.746Z,99917.19
2022-09-15T08:54:21.606Z,99919.81
2022-09-15T08:57:32.160Z,99909.44
2022-09-15T09:00:46.564Z,99913.63
2022-09-15T09:04:20.203Z,99909.63
2022-09-15T09:07:52.112Z,99916.38
2022-09-15T09:11:16.762Z,99907.38
2022-09-15T09:14:40.556Z,99912.28
2022-09-15T09:18:14.307Z,99917.72
2022-09-15T09:21:30.022Z,99903.63
2022-09-15T09:24:44.341Z,99902.94
2022-09-15T09:27:55.334Z,99898.72
2022-09-15T09:31:08.661Z,99903.53
2022-09-15T09:34:28.862Z,99910.22
2022-09-15T09:37:39.357Z,99919.53
2022-09-15T09:40:50.872Z,99929.78
2022-09-15T09:44:02.507Z,99937.88
2022-09-15T09:47:13.220Z,99947.53
2022-09-15T09:50:36.669Z,99935.22
2022-09-15T09:53:54.620Z,99928.44
2022-09-15T09:57:23.893Z,99926.53
2022-09-15T10:00:37.694Z,99924.75
2022-09-15T10:03:48.390Z,99931.19
2022-09-15T10:07:00.583Z,99919.56
2022-09-15T10:10:21.355Z,99915.00
2022-09-15T10:13:31.576Z,99920.69
2022-09-15T10:16:41.970Z,99920.09
2022-09-15T10:19:54.202Z,99923.81
2022-09-15T10:23:08.660Z,99918.59
2022-09-15T10:26:32.009Z,99918.78
2022-09-15T10:29:42.096Z,99922.56
2022-09-15T10:32:53.201Z,99919.25
2022-09-15T10:36:07.389Z,99917.47
2022-09-15T10:39:31.625Z,99912.56
2022-09-15T10:42:49.968Z,99918.91
2022-09-15T10:46:05.019Z,99914.66
2022-09-15T10:49:32.902Z,99913.16
2022-09-15T10:52:59.053Z,99904.59
2022-09-15T10:56:23.275Z,99899.69
2022-09-15T10:59:44.244Z,99893.72
2022-09-15T11:03:20.176Z,99903.50
2022-09-15T11:06:37.378Z,99908.09
2022-09-15T11:09:55.373Z,99926.72
2022-09-15T11:13:15.101Z,99912.91
2022-09-15T11:16:35.332Z,99924.44
2022-09-15T11:20:10.370Z,99910.34
2022-09-15T11:23:26.617Z,99909.13
2022-09-15T11:26:42.221Z,99935.94
2022-09-15T11:30:02.607Z,99957.59
2022-09-15T11:33:19.247Z,99964.94
2022-09-15T11:36:34.912Z,99957.19
2022-09-15T11:39:49.894Z,99958.25
2022-09-15T11:43:04.971Z,99959.22
2022-09-15T11:46:23.121Z,99949.28
2022-09-15T11:49:41.651Z,99947.34
2022-09-15T11:52:58.947Z,99948.97
2022-09-15T11:56:21.709Z,99945.19
2022-09-15T11:59:41.293Z,99935.25
2022-09-15T12:03:00.916Z,99939.38
2022-09-15T12:06:17.651Z,99936.28
2022-09-15T12:09:29.164Z,99927.28
2022-09-15T12:12:42.173Z,99932.75
2022-09-15T12:15:53.517Z,99927.09
2022-09-15T12:19:12.088Z,99935.31
2022-09-15T12:22:28.943Z,99921.47
2022-09-15T12:25:48.775Z,99925.38
2022-09-15T12:29:02.351Z,99928.31
2022-09-15T12:32:27.631Z,99939.84
2022-09-15T12:35:39.608Z,99931.31
2022-09-15T12:38:50.504Z,99928.84
2022-09-15T12:42:14.232Z,99925.41
2022-09-15T12:45:27.197Z,99932.41
2022-09-15T12:48:37.818Z,99926.41
2022-09-15T12:51:51.909Z,99929.16
2022-09-15T12:55:04.640Z,99913.53
2022-09-15T12:58:18.464Z,99925.13
2022-09-15T13:01:37.854Z,99921.09
2022-09-15T13:04:55.421Z,99910.84
2022-09-15T13:08:12.642Z,99916.28
2022-09-15T13:11:29.551Z,99926.97
2022-09-15T13:14:48.182Z,99931.34
2022-09-15T13:17:59.516Z,99937.41
2022-09-15T13:21:15.364Z,99923.19
2022-09-15T13:24:38.529Z,99953.63
2022-09-15T13:27:50.895Z,99977.91
2022-09-15T13:31:13.107Z,99988.47
2022-09-15T13:35:04.098Z,99981.03
2022-09-15T13:38:47.906Z,99977.00
2022-09-15T13:42:22.308Z,99966.53
2022-09-15T13:45:49.537Z,99960.94
2022-09-15T13:49:22.729Z,99962.63
2022-09-15T13:52:50.019Z,99959.84
2022-09-15T13:56:06.733Z,99951.59
2022-09-15T13:59:22.084Z,99946.56
2022-09-15T14:02:35.177Z,99936.34
2022-09-15T14:05:46.581Z,99948.78
2022-09-15T14:08:59.767Z,99951.56
2022-09-15T14:12:12.896Z,99947.34
2022-09-15T14:15:26.774Z,99950.97
2022-09-15T14:18:43.251Z,99947.59
2022-09-15T14:21:58.324Z,99951.25
2022-09-15T14:25:16.566Z,99939.63
2022-09-15T14:28:32.063Z,99949.25
2022-09-15T14:31:44.298Z,99946.56
2022-09-15T14:34:56.215Z,99945.84
2022-09-15T14:38:06.764Z,99954.88
2022-09-15T14:41:20.389Z,99947.34
2022-09-15T14:48:15.491Z,99972.31
2022-09-15T14:51:28.720Z,99984.88
2022-09-15T14:54:39.581Z,99976.09
2022-09-15T14:57:57.531Z,99989.84
2022-09-15T15:01:15.797Z,99982.09
2022-09-15T15:04:35.886Z,99977.00
2022-09-15T15:07:46.566Z,99964.56
2022-09-15T15:10:57.307Z,99956.31
2022-09-15T15:14:11.392Z,99957.97
2022-09-15T15:17:38.547Z,99954.75
2022-09-15T15:20:51.359Z,99950.34
2022-09-15T15:24:02.014Z,99951.78
2022-09-15T15:27:40.528Z,99945.38
2022-09-15T15:30:50.706Z,99948.75
2022-09-15T15:34:05.322Z,99949.59
2022-09-15T15:37:25.162Z,99949.59
2022-09-15T15:40:38.770Z,99956.78
2022-09-15T15:43:59.559Z,99947.25
2022-09-15T15:47:26.379Z,99952.00
2022-09-15T15:50:36.794Z,99956.69
2022-09-15T15:53:48.533Z,99953.56
2022-09-15T15:57:20.526Z,99950.28
2022-09-15T16:00:35.953Z,99952.44
2022-09-15T16:03:46.124Z,99951.63
2022-09-15T16:06:56.972Z,99949.38
2022-09-15T16:10:09.985Z,99947.88
2022-09-15T16:13:21.416Z,99940.13
2022-09-15T16:16:31.829Z,99946.47
2022-09-15T16:19:42.308Z,99945.69
2022-09-15T16:22:52.984Z,99944.97
2022-09-15T16:26:06.355Z,99929.28
2022-09-15T16:29:16.385Z,99939.34
2022-09-15T16:32:26.490Z,99945.47
2022-09-15T16:35:40.276Z,99943.66
2022-09-15T16:38:50.888Z,99940.19
2022-09-15T16:42:02.760Z,99947.13
2022-09-15T16:45:23.664Z,99952.34
2022-09-15T16:48:34.181Z,99953.50
2022-09-15T16:51:44.573Z,99950.63
2022-09-15T16:54:57.573Z,99953.25
2022-09-15T16:58:09.260Z,99948.97
2022-09-15T17:01:21.866Z,99958.41
2022-09-15T17:04:32.789Z,99960.22
2022-09-15T17:07:43.272Z,99958.41
2022-09-15T17:10:54.098Z,99952.25
2022-09-15T17:14:05.738Z,99956.66
2022-09-15T17:17:24.585Z,99959.03
2022-09-15T17:20:39.150Z,99961.69
2022-09-15T17:23:50.809Z,99962.38
2022-09-15T17:27:01.045Z,99968.31
2022-09-15T17:30:13.959Z,99964.78
2022-09-15T17:33:24.249Z,99962.06
2022-09-15T17:36:37.232Z,99960.19
2022-09-15T17:39:50.676Z,99957.22
2022-09-15T17:43:01.889Z,99958.78
2022-09-15T17:46:13.724Z,99963.97
2022-09-15T17:49:24.000Z,99964.69
2022-09-15T17:52:34.253Z,99970.69
2022-09-15T17:55:44.988Z,99961.84
2022-09-15T17:58:55.384Z,99967.81
2022-09-15T18:02:18.350Z,99964.88
2022-09-15T18:05:31.584Z,99965.50
2022-09-15T18:08:42.069Z,99977.66
2022-09-15T18:15:12.203Z,99969.66
2022-09-15T18:18:26.753Z,99963.34
2022-09-15T18:21:36.990Z,99969.47
2022-09-15T18:24:47.583Z,99973.69
2022-09-15T18:27:58.553Z,99977.94
2022-09-15T18:31:08.508Z,99977.06
2022-09-15T18:34:19.901Z,99977.91
2022-09-15T18:37:30.060Z,99973.53
2022-09-15T18:40:45.330Z,99975.22
2022-09-15T18:43:55.199Z,99975.97
2022-09-15T18:47:05.501Z,99975.75
2022-09-15T18:50:18.697Z,99978.22
2022-09-15T18:53:29.041Z,99973.72
2022-09-15T18:56:39.503Z,99973.69
2022-09-15T18:59:49.362Z,99973.78
2022-09-15T19:03:01.051Z,99980.97
2022-09-15T19:06:13.375Z,99980.19
2022-09-15T19:09:23.993Z,99982.84
2022-09-15T19:12:35.435Z,99981.88
2022-09-15T19:15:48.141Z,99993.28
2022-09-15T19:19:00.524Z,99997.53
2022-09-15T19:22:11.942Z,99990.66
2022-09-15T19:25:22.715Z,99991.16
2022-09-15T19:28:33.411Z,99991.59
2022-09-15T19:31:44.132Z,99989.72
2022-09-15T19:34:54.617Z,100003.69
2022-09-15T19:38:06.095Z,100012.44
2022-09-15T19:41:17.756Z,100006.75
2022-09-15T19:44:28.546Z,100011.34
2022-09-15T19:47:39.992Z,100002.84
2022-09-15T19:50:50.202Z,99997.78
2022-09-15T19:54:01.819Z,100008.63
2022-09-15T19:57:11.785Z,100010.25
2022-09-15T20:00:22.115Z,100017.09
2022-09-15T20:03:32.249Z,100009.16
2022-09-15T20:06:42.954Z,100021.44
2022-09-15T20:09:54.888Z,100020.44
2022-09-15T20:13:05.000Z,100013.22
2022-09-15T20:16:17.870Z,100003.72
2022-09-15T20:19:27.984Z,100006.25
2022-09-15T20:22:38.329Z,100014.22
2022-09-15T20:26:01.589Z,100009.03
2022-09-15T20:29:13.059Z,100014.09
2022-09-15T20:32:28.159Z,100021.63
2022-09-15T20:35:38.655Z,100023.41
2022-09-15T20:38:48.836Z,100019.81
2022-09-15T20:42:00.459Z,100012.75
2022-09-15T20:45:11.576Z,100022.41
2022-09-15T20:48:21.628Z,100013.50
2022-09-15T20:51:33.827Z,100015.25
2022-09-15T20:54:44.702Z,100012.69
2022-09-15T20:57:56.217Z,100013.13
2022-09-15T21:01:08.274Z,100013.28
2022-09-15T21:04:18.988Z,100014.03
2022-09-15T21:07:29.595Z,100023.13
2022-09-15T21:10:44.643Z,100030.38
2022-09-15T21:13:57.383Z,100030.31
2022-09-15T21:17:07.690Z,100025.50
2022-09-15T21:20:17.825Z,100030.53
2022-09-15T21:23:32.757Z,100039.97
2022-09-15T21:26:57.513Z,100024.34
2022-09-15T21:30:10.526Z,100026.84
2022-09-15T21:33:21.619Z,100015.28
2022-09-15T21:36:32.884Z,100012.44
2022-09-15T21:39:43.039Z,100016.50
2022-09-15T21:42:53.116Z,100022.94
2022-09-15T21:46:06.429Z,100021.34
2022-09-15T21:49:18.057Z,100013.09
2022-09-15T21:52:29.852Z,100017.19
2022-09-15T21:55:40.108Z,100019.63
2022-09-15T21:58:50.794Z,100016.72
2022-09-15T22:02:02.795Z,100016.78
2022-09-15T22:05:13.132Z,100025.44
2022-09-15T22:08:23.624Z,100017.31
2022-09-15T22:11:34.610Z,100018.28
2022-09-15T22:14:44.716Z,100023.78
2022-09-15T22:17:56.063Z,100024.59
2022-09-15T22:21:08.093Z,100031.66
2022-09-15T22:24:19.411Z,100023.13
2022-09-15T22:27:29.932Z,100022.41
2022-09-15T22:30:40.562Z,100032.81
2022-09-15T22:33:52.572Z,100037.13
2022-09-15T22:37:02.839Z,100032.81
2022-09-15T22:40:13.095Z,100031.91
2022-09-15T22:43:23.551Z,100036.56
2022-09-15T22:46:34.099Z,100034.91
2022-09-15T22:49:45.729Z,100027.22
2022-09-15T22:52:56.557Z,100019.22
2022-09-15T22:56:08.787Z,100027.47
2022-09-15T22:59:18.791Z,100027.47
2022-09-15T23:02:28.808Z,100026.56
2022-09-15T23:05:40.154Z,100025.28
2022-09-15T23:08:51.656Z,100020.53
2022-09-15T23:12:02.088Z,100009.19
2022-09-15T23:15:12.617Z,100025.28
2022-09-15T23:18:22.817Z,100026.09
2022-09-15T23:21:34.530Z,100017.38
2022-09-15T23:24:44.615Z,100024.25
2022-09-15T23:27:54.806Z,100023.38
2022-09-15T23:31:05.005Z,100021.66
2022-09-15T23:34:15.478Z,100015.47
2022-09-15T23:37:26.820Z,100022.34
2022-09-15T23:40:36.994Z,100015.41
2022-09-15T23:43:47.570Z,100020.75
2022-09-15T23:46:58.086Z,100025.63
2022-09-15T23:50:08.512Z,100021.84
2022-09-15T23:53:20.340Z,100023.66
2022-09-15T23:56:30.882Z,100010.78
2022-09-15T23:59:41.347Z,100022.75
